Terminal Aerodrome Forecast
Issued by NWS

Home | Current Version | Previous Version | Text Only | Print | Product List | Glossary On
Versions: 1 2 3 4 5 6 7 8 9 10 11 12 13 14 15
000
FTUS46 KMTR 290500
TAFMRY
TAF
KMRY 290528Z 2906/3006 24004KT P6SM BKN010
     FM290800 24003KT P6SM OVC007
     FM291800 28005KT P6SM SCT010
     FM292000 28010KT P6SM SKC
     FM300400 25005KT P6SM SCT010=

USA.gov is the U.S. government's official web portal to all federal, state and local government web resources and services.